createdAt,value
2022-11-14T00:00:50.383Z,81.18
2022-11-14T00:03:36.355Z,80.89
2022-11-14T00:06:21.846Z,81.36
2022-11-14T00:09:07.403Z,81.37
2022-11-14T00:11:53.000Z,81.61
2022-11-14T00:14:38.827Z,81.64
2022-11-14T00:17:24.052Z,81.95
2022-11-14T00:20:11.989Z,82.09
2022-11-14T00:22:57.670Z,82.31
2022-11-14T00:25:45.821Z,82.45
2022-11-14T00:28:31.355Z,82.59
2022-11-14T00:31:17.365Z,82.78
2022-11-14T00:34:02.794Z,83.01
2022-11-14T00:36:48.271Z,83.14
2022-11-14T00:39:34.045Z,83.50
2022-11-14T00:42:19.755Z,83.48
2022-11-14T00:45:06.453Z,83.63
2022-11-14T00:47:52.191Z,83.95
2022-11-14T00:50:38.083Z,84.03
2022-11-14T00:53:23.805Z,84.02
2022-11-14T00:56:10.781Z,84.21
2022-11-14T00:58:56.388Z,84.35
2022-11-14T01:01:42.172Z,84.47
2022-11-14T01:04:28.130Z,84.39
2022-11-14T01:07:13.466Z,84.58
2022-11-14T01:09:59.220Z,84.70
2022-11-14T01:12:45.179Z,84.94
2022-11-14T01:15:30.812Z,84.78
2022-11-14T01:18:20.545Z,84.99
2022-11-14T01:21:12.671Z,84.93
2022-11-14T01:23:58.352Z,85.34
2022-11-14T01:26:43.699Z,85.31
2022-11-14T01:29:29.964Z,85.46
2022-11-14T01:32:19.015Z,85.67
2022-11-14T01:35:05.110Z,85.69
2022-11-14T01:37:50.792Z,85.64
2022-11-14T01:40:42.960Z,85.92
2022-11-14T01:43:35.833Z,86.09
2022-11-14T01:46:30.351Z,86.17
2022-11-14T01:49:25.466Z,86.36
2022-11-14T01:52:16.068Z,86.55
2022-11-14T01:55:07.074Z,86.34
2022-11-14T01:57:52.631Z,86.72
2022-11-14T02:00:38.591Z,86.74
2022-11-14T02:03:24.484Z,86.82
2022-11-14T02:06:19.667Z,87.13
2022-11-14T02:09:07.121Z,87.30
2022-11-14T02:11:56.527Z,87.24
2022-11-14T02:14:45.352Z,87.50
2022-11-14T02:17:32.328Z,87.46
2022-11-14T02:20:28.787Z,87.52
2022-11-14T02:23:15.848Z,87.57
2022-11-14T02:26:01.731Z,87.79
2022-11-14T02:28:48.340Z,87.90
2022-11-14T02:31:34.451Z,88.07
2022-11-14T02:34:22.004Z,88.25
2022-11-14T02:37:08.207Z,88.27
2022-11-14T02:39:53.678Z,88.45
2022-11-14T02:42:39.174Z,88.60
2022-11-14T02:45:26.122Z,88.55
2022-11-14T02:48:12.060Z,88.73
2022-11-14T02:50:57.639Z,89.01
2022-11-14T02:53:43.463Z,89.09
2022-11-14T02:56:29.216Z,89.00
2022-11-14T02:59:14.974Z,89.10
2022-11-14T03:02:01.204Z,89.15
2022-11-14T03:04:46.823Z,89.49
2022-11-14T03:07:32.592Z,89.65
2022-11-14T03:10:18.594Z,89.70
2022-11-14T03:13:04.197Z,89.89
2022-11-14T03:15:50.035Z,89.76
2022-11-14T03:18:36.151Z,89.97
2022-11-14T03:21:23.469Z,90.14
2022-11-14T03:24:09.252Z,90.20
2022-11-14T03:26:54.874Z,90.34
2022-11-14T03:29:40.578Z,90.61
2022-11-14T03:32:26.209Z,90.66
2022-11-14T03:35:12.303Z,90.65
2022-11-14T03:37:57.655Z,90.62
2022-11-14T03:40:44.112Z,90.37
2022-11-14T03:43:34.471Z,90.36
2022-11-14T03:46:20.599Z,90.60
2022-11-14T03:49:06.246Z,90.79
2022-11-14T03:51:52.862Z,90.57
2022-11-14T03:54:38.579Z,90.49
2022-11-14T03:57:24.106Z,90.59
2022-11-14T04:00:12.799Z,90.41
2022-11-14T04:02:58.445Z,90.10
2022-11-14T04:05:46.315Z,89.92
2022-11-14T04:08:32.359Z,89.79
2022-11-14T04:11:19.360Z,89.57
2022-11-14T04:14:05.945Z,89.82
2022-11-14T04:16:51.338Z,89.67
2022-11-14T04:19:37.052Z,89.73
2022-11-14T04:22:22.884Z,89.87
2022-11-14T04:25:10.061Z,89.84
2022-11-14T04:27:55.900Z,89.96
2022-11-14T04:30:41.709Z,89.84
2022-11-14T04:33:27.777Z,89.79
2022-11-14T04:36:13.367Z,89.82
2022-11-14T04:38:59.332Z,90.01
2022-11-14T04:41:44.986Z,90.01
2022-11-14T04:44:30.836Z,90.39
2022-11-14T04:47:16.506Z,90.75
2022-11-14T04:50:03.206Z,90.99
2022-11-14T04:52:53.569Z,91.52
2022-11-14T04:55:39.287Z,91.75
2022-11-14T04:58:25.480Z,91.94
2022-11-14T05:01:13.453Z,91.78
2022-11-14T05:03:58.965Z,91.71
2022-11-14T05:06:44.768Z,91.83
2022-11-14T05:09:30.330Z,91.94
2022-11-14T05:12:15.732Z,92.09
2022-11-14T05:15:02.555Z,92.34
2022-11-14T05:17:48.170Z,92.49
2022-11-14T05:20:34.003Z,92.45
2022-11-14T05:23:22.868Z,92.46
2022-11-14T05:26:12.734Z,92.57
2022-11-14T05:28:58.464Z,92.52
2022-11-14T05:31:44.381Z,92.54
2022-11-14T05:34:30.276Z,92.78
2022-11-14T05:37:15.932Z,92.83
2022-11-14T05:40:02.288Z,92.88
2022-11-14T05:42:47.923Z,92.89
2022-11-14T05:45:34.702Z,93.49
2022-11-14T05:48:20.336Z,94.15
2022-11-14T05:51:09.791Z,94.56
2022-11-14T05:53:55.522Z,94.81
2022-11-14T05:56:41.123Z,94.35
2022-11-14T05:59:27.429Z,94.43
2022-11-14T06:02:13.296Z,94.17
2022-11-14T06:04:59.390Z,94.02
2022-11-14T06:07:46.942Z,93.88
2022-11-14T06:10:36.819Z,93.70
2022-11-14T06:13:24.274Z,92.65
2022-11-14T06:16:14.490Z,91.95
2022-11-14T06:19:00.171Z,91.46
2022-11-14T06:21:45.638Z,91.06
2022-11-14T06:24:31.425Z,90.85
2022-11-14T06:27:18.042Z,90.34
2022-11-14T06:30:04.724Z,89.46
2022-11-14T06:32:50.138Z,89.07
2022-11-14T06:35:37.060Z,89.05
2022-11-14T06:38:22.739Z,89.32
2022-11-14T06:41:16.238Z,89.59
2022-11-14T06:44:01.866Z,90.00
2022-11-14T06:46:47.794Z,90.27
2022-11-14T06:49:36.565Z,90.33
2022-11-14T06:52:27.212Z,90.52
2022-11-14T06:55:12.720Z,90.74
2022-11-14T06:57:58.556Z,90.88
2022-11-14T07:00:45.190Z,91.16
2022-11-14T07:03:31.077Z,91.28
2022-11-14T07:06:24.259Z,91.48
2022-11-14T07:09:11.429Z,91.74
2022-11-14T07:11:57.197Z,92.07
2022-11-14T07:14:42.878Z,92.15
2022-11-14T07:17:31.180Z,91.83
2022-11-14T07:20:20.634Z,91.96
2022-11-14T07:23:05.907Z,91.79
2022-11-14T07:25:51.850Z,91.65
2022-11-14T07:28:45.137Z,91.76
2022-11-14T07:31:32.348Z,91.79
2022-11-14T07:34:18.927Z,91.71
2022-11-14T07:37:05.926Z,91.74
2022-11-14T07:39:52.615Z,91.74
2022-11-14T07:42:38.347Z,91.71
2022-11-14T07:45:23.979Z,91.50
2022-11-14T07:48:10.726Z,91.28
2022-11-14T07:51:06.943Z,91.31
2022-11-14T07:53:56.915Z,91.13
2022-11-14T07:56:42.478Z,91.09
2022-11-14T07:59:28.120Z,90.80
2022-11-14T08:02:15.648Z,90.91
2022-11-14T08:05:01.297Z,90.57
2022-11-14T08:07:47.007Z,90.74
2022-11-14T08:10:33.748Z,90.33
2022-11-14T08:13:32.223Z,90.20
2022-11-14T08:16:18.768Z,89.95
2022-11-14T08:19:04.220Z,89.91
2022-11-14T08:21:50.903Z,89.58
2022-11-14T08:24:36.677Z,88.93
2022-11-14T08:27:21.958Z,88.53
2022-11-14T08:30:08.864Z,88.30
2022-11-14T08:32:56.663Z,88.21
2022-11-14T08:35:42.571Z,87.77
2022-11-14T08:38:28.640Z,87.49
2022-11-14T08:41:14.806Z,86.91
2022-11-14T08:44:00.466Z,86.79
2022-11-14T08:46:46.166Z,86.94
2022-11-14T08:49:31.831Z,86.53
2022-11-14T08:52:17.403Z,86.26
2022-11-14T08:55:02.941Z,85.85
2022-11-14T08:57:49.920Z,85.83
2022-11-14T09:00:36.041Z,85.96
2022-11-14T09:03:21.757Z,85.49
2022-11-14T09:06:07.939Z,85.44
2022-11-14T09:08:53.382Z,85.40
2022-11-14T09:11:39.010Z,85.16
2022-11-14T09:14:25.040Z,84.80
2022-11-14T09:17:10.448Z,84.82
2022-11-14T09:19:56.105Z,84.61
2022-11-14T09:22:42.552Z,84.01
2022-11-14T09:25:29.497Z,83.56
2022-11-14T09:28:15.095Z,83.13
2022-11-14T09:31:07.876Z,82.35
2022-11-14T09:33:55.547Z,82.87
2022-11-14T09:36:41.154Z,82.85
2022-11-14T09:39:26.659Z,83.16
2022-11-14T09:43:24.880Z,82.12
2022-11-14T09:46:39.078Z,81.63
2022-11-14T09:49:43.831Z,82.08
2022-11-14T09:52:40.332Z,81.91
2022-11-14T09:55:36.801Z,81.73
2022-11-14T09:58:23.300Z,81.92
2022-11-14T10:01:42.755Z,81.52
2022-11-14T10:05:14.768Z,81.34
2022-11-14T10:08:33.234Z,81.24
2022-11-14T10:11:59.712Z,81.30
2022-11-14T10:15:32.617Z,80.91
2022-11-14T10:19:03.474Z,80.70
2022-11-14T10:22:24.679Z,79.94
2022-11-14T10:25:48.821Z,79.96
2022-11-14T10:28:48.667Z,80.43
2022-11-14T10:32:15.773Z,79.71
2022-11-14T10:35:25.281Z,80.31
2022-11-14T10:38:30.994Z,80.25
2022-11-14T10:41:34.682Z,80.13
2022-11-14T10:44:34.315Z,78.55
2022-11-14T10:47:24.670Z,78.17
2022-11-14T10:50:24.962Z,77.77
2022-11-14T10:53:31.856Z,78.51
2022-11-14T10:56:17.993Z,79.04
2022-11-14T10:59:03.720Z,79.15
2022-11-14T11:01:53.911Z,78.91
2022-11-14T11:04:45.310Z,78.77
2022-11-14T11:08:15.058Z,78.67
2022-11-14T11:11:31.978Z,79.12
2022-11-14T11:14:19.618Z,79.51
2022-11-14T11:17:10.941Z,79.32
2022-11-14T11:20:23.433Z,79.63
2022-11-14T11:23:11.947Z,79.41
2022-11-14T11:26:18.624Z,78.91
2022-11-14T11:29:08.862Z,78.47
2022-11-14T11:31:58.326Z,78.83
2022-11-14T11:34:45.039Z,78.81
2022-11-14T11:37:57.162Z,79.02
2022-11-14T11:40:47.943Z,79.20
2022-11-14T11:44:04.811Z,79.16
2022-11-14T11:47:02.036Z,78.46
2022-11-14T11:49:54.672Z,78.67
2022-11-14T11:53:00.696Z,79.13
2022-11-14T11:56:04.727Z,78.88
2022-11-14T11:58:55.079Z,78.84
2022-11-14T12:01:40.516Z,79.16
2022-11-14T12:04:26.419Z,79.04
2022-11-14T12:07:19.249Z,78.57
2022-11-14T12:10:22.598Z,79.23
2022-11-14T12:14:01.972Z,79.45
2022-11-14T12:17:21.099Z,79.43
2022-11-14T12:20:40.687Z,79.65
2022-11-14T12:23:50.869Z,79.89
2022-11-14T12:27:16.860Z,80.22
2022-11-14T12:30:05.235Z,79.98
2022-11-14T12:33:15.571Z,79.86
2022-11-14T12:36:10.443Z,80.15
2022-11-14T12:38:56.921Z,80.16
2022-11-14T12:41:42.732Z,80.20
2022-11-14T12:44:29.543Z,79.60
2022-11-14T12:47:22.211Z,79.21
2022-11-14T12:50:40.897Z,79.07
2022-11-14T12:53:38.057Z,79.05
2022-11-14T12:56:30.392Z,79.12
2022-11-14T12:59:38.758Z,79.33
2022-11-14T13:02:55.547Z,78.78
2022-11-14T13:06:22.657Z,78.94
2022-11-14T13:09:53.463Z,78.90
2022-11-14T13:13:01.299Z,79.27
2022-11-14T13:16:10.202Z,79.17
2022-11-14T13:19:34.739Z,78.83
2022-11-14T13:22:40.916Z,78.69
2022-11-14T13:25:27.575Z,78.42
2022-11-14T13:28:37.921Z,78.71
2022-11-14T13:31:42.120Z,78.73
2022-11-14T13:34:43.375Z,78.79
2022-11-14T13:37:47.462Z,79.07
2022-11-14T13:40:43.550Z,79.26
2022-11-14T13:43:43.827Z,79.37
2022-11-14T13:47:06.671Z,79.26
2022-11-14T13:50:16.080Z,79.32
2022-11-14T13:53:13.250Z,79.52
2022-11-14T13:56:45.015Z,79.54
2022-11-14T14:00:02.340Z,79.52
2022-11-14T14:03:27.481Z,79.49
2022-11-14T14:06:39.492Z,79.44
2022-11-14T14:09:50.855Z,79.72
2022-11-14T14:13:14.593Z,79.53
2022-11-14T14:16:12.600Z,79.88
2022-11-14T14:19:25.849Z,79.65
2022-11-14T14:22:23.499Z,79.61
2022-11-14T14:25:12.307Z,79.70
2022-11-14T14:28:24.761Z,79.59
2022-11-14T14:31:23.180Z,79.34
2022-11-14T14:34:29.979Z,79.55
2022-11-14T14:37:25.522Z,79.49
2022-11-14T14:40:34.850Z,79.44
2022-11-14T14:43:30.542Z,79.70
2022-11-14T14:46:25.134Z,79.70
2022-11-14T14:49:10.772Z,79.64
2022-11-14T14:51:58.708Z,79.65
2022-11-14T14:54:55.677Z,79.75
2022-11-14T14:57:41.938Z,79.92
2022-11-14T15:00:29.567Z,79.89
2022-11-14T15:03:14.893Z,79.85
2022-11-14T15:06:05.091Z,79.93
2022-11-14T15:08:50.745Z,80.13
2022-11-14T15:11:41.333Z,80.12
2022-11-14T15:14:35.708Z,79.77
2022-11-14T15:17:23.112Z,80.00
2022-11-14T15:20:23.096Z,79.76
2022-11-14T15:23:08.462Z,80.01
2022-11-14T15:26:11.360Z,79.92
2022-11-14T15:29:22.770Z,80.48
2022-11-14T15:32:21.855Z,80.33
2022-11-14T15:35:29.216Z,80.34
2022-11-14T15:38:44.645Z,80.46
2022-11-14T15:41:27.878Z,80.37
2022-11-14T15:44:34.787Z,80.39
2022-11-14T15:47:27.648Z,80.50
2022-11-14T15:50:13.094Z,80.22
2022-11-14T15:53:06.526Z,80.22
2022-11-14T15:55:52.126Z,80.21
2022-11-14T15:58:37.597Z,80.45
2022-11-14T16:01:27.917Z,80.41
2022-11-14T16:04:25.471Z,80.42
2022-11-14T16:07:14.302Z,80.33
2022-11-14T16:10:00.169Z,80.33
2022-11-14T16:12:52.036Z,80.18
2022-11-14T16:15:38.416Z,79.97
2022-11-14T16:18:24.125Z,80.22
2022-11-14T16:21:18.730Z,80.04
2022-11-14T16:24:06.063Z,80.00
2022-11-14T16:26:51.951Z,79.65
2022-11-14T16:29:37.566Z,79.87
2022-11-14T16:32:26.551Z,80.22
2022-11-14T16:35:19.142Z,80.41
2022-11-14T16:38:05.010Z,80.47
2022-11-14T16:40:50.704Z,80.58
2022-11-14T16:43:36.761Z,80.55
2022-11-14T16:46:24.505Z,80.58
2022-11-14T16:49:16.785Z,80.83
2022-11-14T16:52:07.083Z,80.68
2022-11-14T16:54:52.890Z,80.67
2022-11-14T16:57:39.640Z,80.65
2022-11-14T17:00:25.281Z,80.96
2022-11-14T17:03:11.174Z,80.89
2022-11-14T17:05:56.921Z,81.03
2022-11-14T17:08:42.464Z,81.18
2022-11-14T17:11:28.530Z,81.31
2022-11-14T17:14:14.049Z,81.49
2022-11-14T17:17:03.646Z,81.55
2022-11-14T17:19:50.551Z,81.88
2022-11-14T17:22:36.599Z,81.94
2022-11-14T17:25:24.365Z,82.03
2022-11-14T17:28:10.989Z,82.01
2022-11-14T17:30:56.795Z,82.30
2022-11-14T17:33:42.408Z,82.52
2022-11-14T17:36:30.947Z,82.43
2022-11-14T17:39:17.140Z,82.71
2022-11-14T17:42:02.701Z,82.80
2022-11-14T17:44:48.761Z,82.88
2022-11-14T17:47:35.069Z,83.08
2022-11-14T17:50:20.826Z,83.15
2022-11-14T17:53:06.514Z,83.34
2022-11-14T17:55:57.348Z,83.28
2022-11-14T17:58:45.010Z,83.34
2022-11-14T18:01:31.646Z,83.47
2022-11-14T18:04:17.740Z,83.30
2022-11-14T18:07:03.543Z,83.44
2022-11-14T18:09:49.460Z,83.42
2022-11-14T18:12:37.162Z,83.50
2022-11-14T18:15:27.718Z,83.48
2022-11-14T18:18:13.875Z,83.52
2022-11-14T18:21:14.999Z,83.46
2022-11-14T18:24:00.530Z,83.60
2022-11-14T18:26:46.261Z,83.59
2022-11-14T18:29:32.075Z,83.43
2022-11-14T18:32:22.731Z,83.02
2022-11-14T18:35:09.905Z,83.06
2022-11-14T18:37:55.667Z,82.81
2022-11-14T18:40:44.261Z,82.74
2022-11-14T18:43:32.731Z,83.31
2022-11-14T18:46:22.760Z,83.54
2022-11-14T18:49:09.012Z,83.71
2022-11-14T18:51:56.382Z,83.87
2022-11-14T18:54:41.929Z,84.18
2022-11-14T18:57:27.577Z,84.18
2022-11-14T19:00:14.435Z,84.51
2022-11-14T19:03:04.848Z,84.48
2022-11-14T19:05:51.582Z,84.74
2022-11-14T19:08:39.578Z,84.96
2022-11-14T19:11:43.821Z,85.00
2022-11-14T19:14:29.753Z,85.41
2022-11-14T19:17:18.738Z,85.25
2022-11-14T19:20:08.824Z,85.35
2022-11-14T19:22:57.381Z,85.40
2022-11-14T19:25:42.914Z,85.51
2022-11-14T19:28:32.017Z,85.70
2022-11-14T19:31:19.546Z,85.73
2022-11-14T19:34:05.990Z,85.87
2022-11-14T19:36:59.955Z,86.09
2022-11-14T19:39:46.108Z,86.15
2022-11-14T19:42:31.915Z,86.26
2022-11-14T19:45:18.023Z,86.22
2022-11-14T19:48:05.365Z,86.48
2022-11-14T19:51:00.198Z,86.54
2022-11-14T19:53:46.654Z,86.52
2022-11-14T19:56:32.454Z,86.69
2022-11-14T19:59:22.910Z,86.88
2022-11-14T20:02:14.063Z,86.86
2022-11-14T20:05:00.300Z,87.00
2022-11-14T20:07:46.474Z,86.97
2022-11-14T20:10:47.442Z,86.89
2022-11-14T20:13:36.840Z,87.18
2022-11-14T20:16:27.896Z,87.04
2022-11-14T20:19:14.148Z,87.16
2022-11-14T20:22:00.912Z,87.52
2022-11-14T20:24:46.851Z,88.12
2022-11-14T20:27:32.622Z,88.53
2022-11-14T20:30:19.659Z,88.95
2022-11-14T20:33:05.595Z,89.42
2022-11-14T20:35:51.405Z,89.82
2022-11-14T20:38:37.340Z,89.93
2022-11-14T20:41:22.949Z,90.27
2022-11-14T20:44:08.812Z,90.39
2022-11-14T20:46:56.884Z,90.26
2022-11-14T20:49:43.439Z,90.25
2022-11-14T20:52:29.074Z,90.27
2022-11-14T20:55:15.784Z,90.20
2022-11-14T20:58:01.630Z,90.02
2022-11-14T21:00:50.551Z,89.91
2022-11-14T21:03:37.754Z,89.73
2022-11-14T21:06:24.357Z,89.37
2022-11-14T21:09:09.993Z,89.08
2022-11-14T21:11:56.225Z,89.08
2022-11-14T21:14:41.645Z,88.96
2022-11-14T21:17:27.615Z,88.71
2022-11-14T21:20:12.824Z,88.68
2022-11-14T21:22:58.569Z,88.55
2022-11-14T21:25:44.258Z,88.42
2022-11-14T21:28:32.647Z,88.35
2022-11-14T21:31:35.569Z,88.17
2022-11-14T21:34:20.957Z,88.13
2022-11-14T21:37:07.007Z,88.11
2022-11-14T21:39:52.704Z,87.86
2022-11-14T21:42:39.994Z,87.77
2022-11-14T21:45:25.645Z,87.89
2022-11-14T21:48:11.636Z,87.78
2022-11-14T21:51:11.299Z,87.68
2022-11-14T21:53:58.597Z,87.36
2022-11-14T21:56:44.410Z,87.39
2022-11-14T21:59:31.437Z,87.34
2022-11-14T22:02:35.545Z,87.24
2022-11-14T22:05:21.076Z,87.21
2022-11-14T22:08:06.758Z,87.14
2022-11-14T22:10:53.901Z,87.14
2022-11-14T22:13:39.558Z,87.02
2022-11-14T22:16:25.679Z,87.08
2022-11-14T22:19:11.563Z,86.95
2022-11-14T22:21:57.276Z,87.12
2022-11-14T22:24:42.935Z,86.98
2022-11-14T22:27:28.538Z,86.88
2022-11-14T22:30:17.489Z,86.91
2022-11-14T22:33:03.319Z,86.66
2022-11-14T22:35:48.827Z,86.90
2022-11-14T22:38:36.374Z,86.76
2022-11-14T22:41:28.992Z,86.67
2022-11-14T22:44:17.271Z,86.81
2022-11-14T22:47:03.104Z,86.71
2022-11-14T22:49:48.912Z,86.76
2022-11-14T22:52:34.716Z,86.76
2022-11-14T22:55:20.409Z,86.63
2022-11-14T22:58:06.005Z,86.88
2022-11-14T23:00:52.475Z,86.90
2022-11-14T23:03:39.314Z,86.89
2022-11-14T23:06:26.090Z,86.92
2022-11-14T23:09:12.162Z,86.91
2022-11-14T23:11:57.467Z,86.95
2022-11-14T23:14:44.211Z,86.93
2022-11-14T23:17:30.058Z,87.22
2022-11-14T23:20:16.867Z,87.14
2022-11-14T23:23:03.567Z,87.37
2022-11-14T23:25:49.252Z,87.37
2022-11-14T23:28:36.315Z,87.54
2022-11-14T23:31:22.977Z,87.43
2022-11-14T23:34:08.694Z,87.61
2022-11-14T23:36:54.396Z,87.60
2022-11-14T23:39:40.065Z,87.70
2022-11-14T23:42:25.769Z,87.94
2022-11-14T23:45:11.642Z,87.81
2022-11-14T23:47:57.290Z,87.83
2022-11-14T23:50:44.841Z,87.86
2022-11-14T23:53:31.027Z,87.84
2022-11-14T23:56:16.969Z,87.81
2022-11-14T23:59:02.773Z,87.83
